createdAt,value
2023-05-27T00:00:31.420Z,4.55
2023-05-27T00:01:02.978Z,4.74
2023-05-27T00:01:34.404Z,4.63
2023-05-27T00:02:06.353Z,4.63
2023-05-27T00:02:38.215Z,4.63
2023-05-27T00:03:10.556Z,4.63
2023-05-27T00:03:36.957Z,4.63
2023-05-27T00:03:59.359Z,4.53
2023-05-27T00:04:30.285Z,4.53
2023-05-27T00:05:03.485Z,4.53
2023-05-27T00:05:34.241Z,4.53
2023-05-27T00:06:06.410Z,4.53
2023-05-27T00:06:38.343Z,4.53
2023-05-27T00:07:10.541Z,4.71
2023-05-27T00:07:36.852Z,4.71
2023-05-27T00:07:58.710Z,4.53
2023-05-27T00:08:30.242Z,4.60
2023-05-27T00:09:02.237Z,4.60
2023-05-27T00:09:34.232Z,4.60
2023-05-27T00:10:07.353Z,4.60
2023-05-27T00:10:38.413Z,4.49
2023-05-27T00:11:10.478Z,4.49
2023-05-27T00:11:36.377Z,4.49
2023-05-27T00:11:58.863Z,4.30
2023-05-27T00:12:30.658Z,4.41
2023-05-27T00:13:02.146Z,4.41
2023-05-27T00:13:34.448Z,4.41
2023-05-27T00:14:06.329Z,4.41
2023-05-27T00:14:38.356Z,4.41
2023-05-27T00:15:11.586Z,4.41
2023-05-27T00:15:36.510Z,4.41
2023-05-27T00:15:58.979Z,4.53
2023-05-27T00:16:30.281Z,4.53
2023-05-27T00:17:02.198Z,4.53
2023-05-27T00:17:34.452Z,4.53
2023-05-27T00:18:06.445Z,4.53
2023-05-27T00:18:38.173Z,4.53
2023-05-27T00:19:10.573Z,4.53
2023-05-27T00:19:36.397Z,4.53
2023-05-27T00:19:58.782Z,4.53
2023-05-27T00:20:30.698Z,4.53
2023-05-27T00:21:02.344Z,4.63
2023-05-27T00:21:35.071Z,4.53
2023-05-27T00:22:06.398Z,4.53
2023-05-27T00:22:39.321Z,4.53
2023-05-27T00:23:10.531Z,4.53
2023-05-27T00:23:36.858Z,4.53
2023-05-27T00:23:58.767Z,4.53
2023-05-27T00:24:30.203Z,4.53
2023-05-27T00:25:03.581Z,4.53
2023-05-27T00:25:34.389Z,4.53
2023-05-27T00:26:06.295Z,4.53
2023-05-27T00:26:38.579Z,4.53
2023-05-27T00:27:10.337Z,4.53
2023-05-27T00:27:36.935Z,4.53
2023-05-27T00:27:58.626Z,4.53
2023-05-27T00:28:30.381Z,4.53
2023-05-27T00:29:02.188Z,4.53
2023-05-27T00:29:34.229Z,4.53
2023-05-27T00:30:07.918Z,4.53
2023-05-27T00:30:38.129Z,4.53
2023-05-27T00:31:10.661Z,4.53
2023-05-27T00:31:36.309Z,4.71
2023-05-27T00:31:58.772Z,4.71
2023-05-27T00:32:30.193Z,4.60
2023-05-27T00:33:02.266Z,4.60
2023-05-27T00:33:34.280Z,4.60
2023-05-27T00:34:06.303Z,4.60
2023-05-27T00:34:38.111Z,4.60
2023-05-27T00:35:11.241Z,4.60
2023-05-27T00:35:36.509Z,4.60
2023-05-27T00:35:59.108Z,4.41
2023-05-27T00:36:30.892Z,4.41
2023-05-27T00:37:02.236Z,4.49
2023-05-27T00:37:34.402Z,4.49
2023-05-27T00:38:06.324Z,4.49
2023-05-27T00:38:38.193Z,4.49
2023-05-27T00:39:10.474Z,4.49
2023-05-27T00:39:36.265Z,4.49
2023-05-27T00:39:58.609Z,4.49
2023-05-27T00:40:30.612Z,4.49
2023-05-27T00:41:02.427Z,4.49
2023-05-27T00:41:34.348Z,4.49
2023-05-27T00:42:06.533Z,4.49
2023-05-27T00:42:38.256Z,4.49
2023-05-27T00:43:10.666Z,4.49
2023-05-27T00:43:36.280Z,4.49
2023-05-27T00:43:58.604Z,4.49
2023-05-27T00:44:30.320Z,4.49
2023-05-27T00:45:04.274Z,4.49
2023-05-27T00:45:35.196Z,4.49
2023-05-27T00:46:06.355Z,4.49
2023-05-27T00:46:38.188Z,4.49
2023-05-27T00:47:10.466Z,4.49
2023-05-27T00:47:36.929Z,4.49
2023-05-27T00:48:01.354Z,4.62
2023-05-27T00:48:30.186Z,4.62
2023-05-27T00:49:02.356Z,4.62
2023-05-27T00:49:34.358Z,4.51
2023-05-27T00:50:07.332Z,4.51
2023-05-27T00:50:38.238Z,4.51
2023-05-27T00:51:10.516Z,4.41
2023-05-27T00:51:36.281Z,4.41
2023-05-27T00:51:58.570Z,4.41
2023-05-27T00:52:30.334Z,4.60
2023-05-27T00:53:02.265Z,4.41
2023-05-27T00:53:34.332Z,4.29
2023-05-27T00:54:06.541Z,4.29
2023-05-27T00:54:38.153Z,4.29
2023-05-27T00:55:11.140Z,4.29
2023-05-27T00:55:36.899Z,4.29
2023-05-27T00:55:59.357Z,4.29
2023-05-27T00:56:30.239Z,4.29
2023-05-27T00:57:02.243Z,4.29
2023-05-27T00:57:34.260Z,4.29
2023-05-27T00:58:06.328Z,4.48
2023-05-27T00:58:38.099Z,4.48
2023-05-27T00:59:10.626Z,4.37
2023-05-27T00:59:36.877Z,4.37
2023-05-27T00:59:58.653Z,4.37
2023-05-27T01:00:31.376Z,4.37
2023-05-27T01:01:02.828Z,4.32
2023-05-27T01:01:34.409Z,4.32
2023-05-27T01:02:06.362Z,4.32
2023-05-27T01:02:38.215Z,4.32
2023-05-27T01:03:10.601Z,4.22
2023-05-27T01:03:36.601Z,4.39
2023-05-27T01:03:58.852Z,4.22
2023-05-27T01:04:30.197Z,4.22
2023-05-27T01:05:03.511Z,4.22
2023-05-27T01:05:34.296Z,4.22
2023-05-27T01:06:06.453Z,4.22
2023-05-27T01:06:38.169Z,4.22
2023-05-27T01:07:10.408Z,4.22
2023-05-27T01:07:36.266Z,4.22
2023-05-27T01:07:59.018Z,4.22
2023-05-27T01:08:30.149Z,4.22
2023-05-27T01:09:02.382Z,4.22
2023-05-27T01:09:34.322Z,4.22
2023-05-27T01:10:07.329Z,4.22
2023-05-27T01:10:38.284Z,4.22
2023-05-27T01:11:10.385Z,4.22
2023-05-27T01:11:36.390Z,4.22
2023-05-27T01:11:58.643Z,4.39
2023-05-27T01:12:30.253Z,4.22
2023-05-27T01:13:02.858Z,4.22
2023-05-27T01:13:34.355Z,4.39
2023-05-27T01:14:06.352Z,4.22
2023-05-27T01:14:38.119Z,4.22
2023-05-27T01:15:11.533Z,4.22
2023-05-27T01:15:36.950Z,4.22
2023-05-27T01:15:59.226Z,4.39
2023-05-27T01:16:30.259Z,4.22
2023-05-27T01:17:03.041Z,4.32
2023-05-27T01:17:34.329Z,4.32
2023-05-27T01:18:06.398Z,4.32
2023-05-27T01:18:38.127Z,4.32
2023-05-27T01:19:10.479Z,4.32
2023-05-27T01:19:36.642Z,4.32
2023-05-27T01:19:58.582Z,4.32
2023-05-27T01:20:30.742Z,4.22
2023-05-27T01:21:02.316Z,4.22
2023-05-27T01:21:34.386Z,4.22
2023-05-27T01:22:06.973Z,4.39
2023-05-27T01:22:38.120Z,4.29
2023-05-27T01:23:10.591Z,4.29
2023-05-27T01:23:36.614Z,4.29
2023-05-27T01:23:58.642Z,4.17
2023-05-27T01:24:30.210Z,4.06
2023-05-27T01:25:03.687Z,4.06
2023-05-27T01:25:34.434Z,4.06
2023-05-27T01:26:06.297Z,4.19
2023-05-27T01:26:38.130Z,4.19
2023-05-27T01:27:10.880Z,4.19
2023-05-27T01:27:36.497Z,4.19
2023-05-27T01:27:58.812Z,4.08
2023-05-27T01:28:30.188Z,4.08
2023-05-27T01:29:02.374Z,4.08
2023-05-27T01:29:34.276Z,4.08
2023-05-27T01:30:07.668Z,4.08
2023-05-27T01:30:38.222Z,3.97
2023-05-27T01:31:11.230Z,3.97
2023-05-27T01:31:36.540Z,3.97
2023-05-27T01:31:58.808Z,3.97
2023-05-27T01:32:30.360Z,3.97
2023-05-27T01:33:02.336Z,3.97
2023-05-27T01:33:34.474Z,3.97
2023-05-27T01:34:06.651Z,3.86
2023-05-27T01:34:38.312Z,4.03
2023-05-27T01:35:10.929Z,4.03
2023-05-27T01:35:36.519Z,4.03
2023-05-27T01:35:59.007Z,4.03
2023-05-27T01:36:30.216Z,4.03
2023-05-27T01:37:02.258Z,4.03
2023-05-27T01:37:34.613Z,4.03
2023-05-27T01:38:06.299Z,3.93
2023-05-27T01:38:38.099Z,3.93
2023-05-27T01:39:10.420Z,3.93
2023-05-27T01:39:36.361Z,3.93
2023-05-27T01:39:58.960Z,4.04
2023-05-27T01:40:30.844Z,4.04
2023-05-27T01:41:02.236Z,4.04
2023-05-27T01:41:34.326Z,4.04
2023-05-27T01:42:06.532Z,3.93
2023-05-27T01:42:38.284Z,3.93
2023-05-27T01:43:10.405Z,3.93
2023-05-27T01:43:36.276Z,3.93
2023-05-27T01:43:59.276Z,3.93
2023-05-27T01:44:30.320Z,3.93
2023-05-27T01:45:04.300Z,3.93
2023-05-27T01:45:34.489Z,3.93
2023-05-27T01:46:06.335Z,3.93
2023-05-27T01:46:38.290Z,3.93
2023-05-27T01:47:10.930Z,3.83
2023-05-27T01:47:36.986Z,3.83
2023-05-27T01:47:58.780Z,3.83
2023-05-27T01:48:30.225Z,3.83
2023-05-27T01:49:02.293Z,3.83
2023-05-27T01:49:34.816Z,3.71
2023-05-27T01:50:07.401Z,3.88
2023-05-27T01:50:38.203Z,3.88
2023-05-27T01:51:10.517Z,3.77
2023-05-27T01:51:36.411Z,3.77
2023-05-27T01:51:58.736Z,3.77
2023-05-27T01:52:30.294Z,3.77
2023-05-27T01:53:02.439Z,3.73
2023-05-27T01:53:34.286Z,3.73
2023-05-27T01:54:06.316Z,3.73
2023-05-27T01:54:38.211Z,3.62
2023-05-27T01:55:10.912Z,3.62
2023-05-27T01:55:36.550Z,3.62
2023-05-27T01:55:58.933Z,3.62
2023-05-27T01:56:30.238Z,3.62
2023-05-27T01:57:02.282Z,3.62
2023-05-27T01:57:34.480Z,3.73
2023-05-27T01:58:06.369Z,3.73
2023-05-27T01:58:38.148Z,3.73
2023-05-27T01:59:10.494Z,3.77
2023-05-27T01:59:36.419Z,3.77
2023-05-27T01:59:58.738Z,3.77
2023-05-27T02:00:31.186Z,3.88
2023-05-27T02:01:03.198Z,3.88
2023-05-27T02:01:34.449Z,4.00
2023-05-27T02:02:06.344Z,4.00
2023-05-27T02:02:38.251Z,4.11
2023-05-27T02:03:10.578Z,4.11
2023-05-27T02:03:36.453Z,4.11
2023-05-27T02:03:59.098Z,4.11
2023-05-27T02:04:30.262Z,4.11
2023-05-27T02:05:03.863Z,4.11
2023-05-27T02:05:34.392Z,4.11
2023-05-27T02:06:06.497Z,4.11
2023-05-27T02:06:38.069Z,4.11
2023-05-27T02:07:10.497Z,4.11
2023-05-27T02:07:36.445Z,4.11
2023-05-27T02:07:58.705Z,4.11
2023-05-27T02:08:30.417Z,4.11
2023-05-27T02:09:02.214Z,4.11
2023-05-27T02:09:34.372Z,4.00
2023-05-27T02:10:07.246Z,4.00
2023-05-27T02:10:38.310Z,4.00
2023-05-27T02:11:10.461Z,4.00
2023-05-27T02:11:36.373Z,3.88
2023-05-27T02:11:58.548Z,3.88
2023-05-27T02:12:30.553Z,3.88
2023-05-27T02:13:02.260Z,3.88
2023-05-27T02:13:34.347Z,3.88
2023-05-27T02:14:06.357Z,3.88
2023-05-27T02:14:38.238Z,4.00
2023-05-27T02:15:11.454Z,4.00
2023-05-27T02:15:36.447Z,4.00
2023-05-27T02:15:59.048Z,4.00
2023-05-27T02:16:30.240Z,4.11
2023-05-27T02:17:02.331Z,4.11
2023-05-27T02:17:34.693Z,4.11
2023-05-27T02:18:06.483Z,4.11
2023-05-27T02:18:38.211Z,4.11
2023-05-27T02:19:10.747Z,4.11
2023-05-27T02:19:37.060Z,4.11
2023-05-27T02:19:58.693Z,4.11
2023-05-27T02:20:30.706Z,4.11
2023-05-27T02:21:02.277Z,4.11
2023-05-27T02:21:34.371Z,4.11
2023-05-27T02:22:06.471Z,4.11
2023-05-27T02:22:38.386Z,3.93
2023-05-27T02:23:10.478Z,3.93
2023-05-27T02:23:37.055Z,4.04
2023-05-27T02:24:00.132Z,4.04
2023-05-27T02:24:30.477Z,4.04
2023-05-27T02:25:03.845Z,4.04
2023-05-27T02:25:34.434Z,4.04
2023-05-27T02:26:06.436Z,4.09
2023-05-27T02:26:38.731Z,4.09
2023-05-27T02:27:10.426Z,4.09
2023-05-27T02:27:36.390Z,4.09
2023-05-27T02:27:58.624Z,4.20
2023-05-27T02:28:30.213Z,4.20
2023-05-27T02:29:02.352Z,4.20
2023-05-27T02:29:34.659Z,4.20
2023-05-27T02:30:07.657Z,4.20
2023-05-27T02:30:38.347Z,4.20
2023-05-27T02:31:10.585Z,4.20
2023-05-27T02:31:36.421Z,4.20
2023-05-27T02:31:58.710Z,4.20
2023-05-27T02:32:30.191Z,4.20
2023-05-27T02:33:02.378Z,4.20
2023-05-27T02:33:34.380Z,4.20
2023-05-27T02:34:06.376Z,4.20
2023-05-27T02:34:38.193Z,4.20
2023-05-27T02:35:10.773Z,4.20
2023-05-27T02:35:36.401Z,4.20
2023-05-27T02:35:58.641Z,4.20
2023-05-27T02:36:30.196Z,4.20
2023-05-27T02:37:02.223Z,4.20
2023-05-27T02:37:34.251Z,4.20
2023-05-27T02:38:06.451Z,4.20
2023-05-27T02:38:38.227Z,4.20
2023-05-27T02:39:11.025Z,4.20
2023-05-27T02:39:36.362Z,4.20
2023-05-27T02:39:58.973Z,4.20
2023-05-27T02:40:30.620Z,4.20
2023-05-27T02:41:02.353Z,4.20
2023-05-27T02:41:34.473Z,4.20
2023-05-27T02:42:06.439Z,4.20
2023-05-27T02:42:38.196Z,4.09
2023-05-27T02:43:10.406Z,4.09
2023-05-27T02:43:36.424Z,4.09
2023-05-27T02:43:58.661Z,4.04
2023-05-27T02:44:30.268Z,4.21
2023-05-27T02:45:04.551Z,4.11
2023-05-27T02:45:34.410Z,4.00
2023-05-27T02:46:06.379Z,4.00
2023-05-27T02:46:38.201Z,3.88
2023-05-27T02:47:10.482Z,3.77
2023-05-27T02:47:36.550Z,3.77
2023-05-27T02:47:58.696Z,3.73
2023-05-27T02:48:30.187Z,3.62
2023-05-27T02:49:02.245Z,3.62
2023-05-27T02:49:34.482Z,3.51
2023-05-27T02:50:07.224Z,3.51
2023-05-27T02:50:38.310Z,3.51
2023-05-27T02:51:10.554Z,3.39
2023-05-27T02:51:36.613Z,3.39
2023-05-27T02:51:58.675Z,3.39
2023-05-27T02:52:30.287Z,3.39
2023-05-27T02:53:02.373Z,3.29
2023-05-27T02:53:34.390Z,3.46
2023-05-27T02:54:06.412Z,3.46
2023-05-27T02:54:38.485Z,3.46
2023-05-27T02:55:10.885Z,3.41
2023-05-27T02:55:36.449Z,3.41
2023-05-27T02:55:59.114Z,3.41
2023-05-27T02:56:30.241Z,3.41
2023-05-27T02:57:02.310Z,3.30
2023-05-27T02:57:34.396Z,3.30
2023-05-27T02:58:06.366Z,3.30
2023-05-27T02:58:38.305Z,3.30
2023-05-27T02:59:10.609Z,3.30
2023-05-27T02:59:37.186Z,3.30
2023-05-27T02:59:58.799Z,3.30
2023-05-27T03:00:31.308Z,3.36
2023-05-27T03:01:03.050Z,3.36
2023-05-27T03:01:34.350Z,3.36
2023-05-27T03:02:06.396Z,3.36
2023-05-27T03:02:38.190Z,3.36
2023-05-27T03:03:10.435Z,3.36
2023-05-27T03:03:36.469Z,3.36
2023-05-27T03:03:59.259Z,3.36
2023-05-27T03:04:30.196Z,3.36
2023-05-27T03:05:03.704Z,3.36
2023-05-27T03:05:34.350Z,3.36
2023-05-27T03:06:06.620Z,3.24
2023-05-27T03:06:38.272Z,3.36
2023-05-27T03:07:10.956Z,3.24
2023-05-27T03:07:36.615Z,3.24
2023-05-27T03:07:59.414Z,3.24
2023-05-27T03:08:30.468Z,3.40
2023-05-27T03:09:02.713Z,3.40
2023-05-27T03:09:34.697Z,3.40
2023-05-27T03:10:07.485Z,3.40
2023-05-27T03:10:38.611Z,3.52
2023-05-27T03:11:11.095Z,3.52
2023-05-27T03:11:36.630Z,3.52
2023-05-27T03:11:58.902Z,3.52
2023-05-27T03:12:30.427Z,3.52
2023-05-27T03:13:03.126Z,3.52
2023-05-27T03:13:34.527Z,3.40
2023-05-27T03:14:06.512Z,3.40
2023-05-27T03:14:38.483Z,3.40
2023-05-27T03:15:12.213Z,3.40
2023-05-27T03:15:36.690Z,3.40
2023-05-27T03:15:59.429Z,3.40
2023-05-27T03:16:30.577Z,3.40
2023-05-27T03:17:02.601Z,3.40
2023-05-27T03:17:35.009Z,3.52
2023-05-27T03:18:06.770Z,3.52
2023-05-27T03:18:38.534Z,3.52
2023-05-27T03:19:10.709Z,3.52
2023-05-27T03:19:36.781Z,3.52
2023-05-27T03:19:58.960Z,3.52
2023-05-27T03:20:31.108Z,3.52
2023-05-27T03:21:02.509Z,3.62
2023-05-27T03:21:34.949Z,3.62
2023-05-27T03:22:07.261Z,3.62
2023-05-27T03:22:38.568Z,3.62
2023-05-27T03:23:10.851Z,3.62
2023-05-27T03:23:36.718Z,3.62
2023-05-27T03:23:59.091Z,3.46
2023-05-27T03:24:30.620Z,3.46
2023-05-27T03:25:04.675Z,3.62
2023-05-27T03:25:34.745Z,3.46
2023-05-27T03:26:06.641Z,3.46
2023-05-27T03:26:38.408Z,3.46
2023-05-27T03:27:11.362Z,3.57
2023-05-27T03:27:36.744Z,3.57
2023-05-27T03:27:58.848Z,3.57
2023-05-27T03:28:30.665Z,3.57
2023-05-27T03:29:02.559Z,3.57
2023-05-27T03:29:34.704Z,3.57
2023-05-27T03:30:07.978Z,3.57
2023-05-27T03:30:38.567Z,3.62
2023-05-27T03:31:11.316Z,3.62
2023-05-27T03:31:36.928Z,3.62
2023-05-27T03:31:59.300Z,3.62
2023-05-27T03:32:30.501Z,3.62
2023-05-27T03:33:02.573Z,3.62
2023-05-27T03:33:34.757Z,3.62
2023-05-27T03:34:06.582Z,3.62
2023-05-27T03:34:38.621Z,3.73
2023-05-27T03:35:11.154Z,3.73
2023-05-27T03:35:36.587Z,3.73
2023-05-27T03:35:59.342Z,3.73
2023-05-27T03:36:30.463Z,3.73
2023-05-27T03:37:02.516Z,3.73
2023-05-27T03:37:34.590Z,3.73
2023-05-27T03:38:06.554Z,3.73
2023-05-27T03:38:38.502Z,3.73
2023-05-27T03:39:10.741Z,3.73
2023-05-27T03:39:36.586Z,3.73
2023-05-27T03:39:58.906Z,3.73
2023-05-27T03:40:30.955Z,3.73
2023-05-27T03:41:02.574Z,3.85
2023-05-27T03:41:34.706Z,3.85
2023-05-27T03:42:06.646Z,3.85
2023-05-27T03:42:38.537Z,3.85
2023-05-27T03:43:10.796Z,3.85
2023-05-27T03:43:36.601Z,3.85
2023-05-27T03:43:59.011Z,3.85
2023-05-27T03:44:30.541Z,3.95
2023-05-27T03:45:04.857Z,3.95
2023-05-27T03:45:34.769Z,3.95
2023-05-27T03:46:06.581Z,3.95
2023-05-27T03:46:38.696Z,3.95
2023-05-27T03:47:10.782Z,4.06
2023-05-27T03:47:36.703Z,4.06
2023-05-27T03:47:58.864Z,4.06
2023-05-27T03:48:30.437Z,4.06
2023-05-27T03:49:02.513Z,3.90
2023-05-27T03:49:34.791Z,4.06
2023-05-27T03:50:07.529Z,3.90
2023-05-27T03:50:38.631Z,3.90
2023-05-27T03:51:10.675Z,3.90
2023-05-27T03:51:36.709Z,3.95
2023-05-27T03:51:58.951Z,3.95
2023-05-27T03:52:30.452Z,3.95
2023-05-27T03:53:02.495Z,3.95
2023-05-27T03:53:34.649Z,3.95
2023-05-27T03:54:06.578Z,3.95
2023-05-27T03:54:38.586Z,4.06
2023-05-27T03:55:11.114Z,4.06
2023-05-27T03:55:36.629Z,4.06
2023-05-27T03:55:59.511Z,4.06
2023-05-27T03:56:30.599Z,4.06
2023-05-27T03:57:02.617Z,4.17
2023-05-27T03:57:34.786Z,4.17
2023-05-27T03:58:06.675Z,4.17
2023-05-27T03:58:38.704Z,4.28
2023-05-27T03:59:10.772Z,4.28
2023-05-27T03:59:36.584Z,4.28
2023-05-27T03:59:58.901Z,4.21
2023-05-27T04:00:31.601Z,4.21
2023-05-27T04:01:03.479Z,4.21
2023-05-27T04:01:34.708Z,4.26
2023-05-27T04:02:06.777Z,4.26
2023-05-27T04:02:38.552Z,4.26
2023-05-27T04:03:11.229Z,4.37
2023-05-27T04:03:36.755Z,4.37
2023-05-27T04:03:58.911Z,4.49
2023-05-27T04:04:30.862Z,4.49
2023-05-27T04:05:03.983Z,4.60
2023-05-27T04:05:35.752Z,4.42
2023-05-27T04:06:06.625Z,4.53
2023-05-27T04:06:38.500Z,4.53
2023-05-27T04:07:10.712Z,4.53
2023-05-27T04:07:36.633Z,4.58
2023-05-27T04:07:58.754Z,4.58
2023-05-27T04:08:30.992Z,4.58
2023-05-27T04:09:02.536Z,4.58
2023-05-27T04:09:34.851Z,4.58
2023-05-27T04:10:07.411Z,4.58
2023-05-27T04:10:38.517Z,4.58
2023-05-27T04:11:10.657Z,4.53
2023-05-27T04:11:36.697Z,4.53
2023-05-27T04:11:58.947Z,4.53
2023-05-27T04:12:30.594Z,4.53
2023-05-27T04:13:02.839Z,4.53
2023-05-27T04:13:35.071Z,4.53
2023-05-27T04:14:06.579Z,4.53
2023-05-27T04:14:38.460Z,4.53
2023-05-27T04:15:11.716Z,4.53
2023-05-27T04:15:37.194Z,4.53
2023-05-27T04:15:59.426Z,4.58
2023-05-27T04:16:30.571Z,4.58
2023-05-27T04:17:02.618Z,4.58
2023-05-27T04:17:34.942Z,4.58
2023-05-27T04:18:06.693Z,4.58
2023-05-27T04:18:38.599Z,4.58
2023-05-27T04:19:10.650Z,4.58
2023-05-27T04:19:37.017Z,4.58
2023-05-27T04:19:58.945Z,4.58
2023-05-27T04:20:31.316Z,4.58
2023-05-27T04:21:02.598Z,4.58
2023-05-27T04:21:40.293Z,4.58
2023-05-27T04:22:06.737Z,4.58
2023-05-27T04:22:38.908Z,4.58
2023-05-27T04:23:10.991Z,4.58
2023-05-27T04:23:36.630Z,4.58
2023-05-27T04:23:59.081Z,4.58
2023-05-27T04:24:30.497Z,4.58
2023-05-27T04:25:04.170Z,4.58
2023-05-27T04:25:34.609Z,4.58
2023-05-27T04:26:07.074Z,4.58
2023-05-27T04:26:38.781Z,4.58
2023-05-27T04:27:10.830Z,4.58
2023-05-27T04:27:36.807Z,4.58
2023-05-27T04:27:58.864Z,4.58
2023-05-27T04:28:30.534Z,4.58
2023-05-27T04:29:02.727Z,4.58
2023-05-27T04:29:34.689Z,4.58
2023-05-27T04:30:09.695Z,4.58
2023-05-27T04:30:38.588Z,4.58
2023-05-27T04:31:10.621Z,4.58
2023-05-27T04:31:36.702Z,4.58
2023-05-27T04:31:58.932Z,4.58
2023-05-27T04:32:30.791Z,4.58
2023-05-27T04:33:02.610Z,4.68
2023-05-27T04:33:34.744Z,4.68
2023-05-27T04:34:06.689Z,4.68
2023-05-27T04:34:38.472Z,4.68
2023-05-27T04:35:11.094Z,4.80
2023-05-27T04:35:36.760Z,4.80
2023-05-27T04:35:59.528Z,4.80
2023-05-27T04:36:30.460Z,4.80
2023-05-27T04:37:02.610Z,4.80
2023-05-27T04:37:34.803Z,4.91
2023-05-27T04:38:06.621Z,4.91
2023-05-27T04:38:38.491Z,4.91
2023-05-27T04:39:11.240Z,4.80
2023-05-27T04:39:36.684Z,4.80
2023-05-27T04:39:58.895Z,4.80
2023-05-27T04:40:31.063Z,4.64
2023-05-27T04:41:02.532Z,4.64
2023-05-27T04:41:34.713Z,4.75
2023-05-27T04:42:06.756Z,4.75
2023-05-27T04:42:38.584Z,4.75
2023-05-27T04:43:10.651Z,4.75
2023-05-27T04:43:37.202Z,4.75
2023-05-27T04:43:59.113Z,4.75
2023-05-27T04:44:30.615Z,4.85
2023-05-27T04:45:04.692Z,4.85
2023-05-27T04:45:34.791Z,4.85
2023-05-27T04:46:06.709Z,4.85
2023-05-27T04:46:38.453Z,4.85
2023-05-27T04:47:11.205Z,4.90
2023-05-27T04:47:37.402Z,4.90
2023-05-27T04:47:59.046Z,4.90
2023-05-27T04:48:30.487Z,4.90
2023-05-27T04:49:02.491Z,4.90
2023-05-27T04:49:34.479Z,5.01
2023-05-27T04:50:07.499Z,5.01
2023-05-27T04:50:38.554Z,5.01
2023-05-27T04:51:10.680Z,5.01
2023-05-27T04:51:37.223Z,5.13
2023-05-27T04:51:59.086Z,5.13
2023-05-27T04:52:30.706Z,5.23
2023-05-27T04:53:04.453Z,5.06
2023-05-27T04:53:34.908Z,5.06
2023-05-27T04:54:07.104Z,5.16
2023-05-27T04:54:38.733Z,5.16
2023-05-27T04:55:11.801Z,5.16
2023-05-27T04:55:37.004Z,5.16
2023-05-27T04:55:59.464Z,5.16
2023-05-27T04:56:30.810Z,5.34
2023-05-27T04:57:02.730Z,5.34
2023-05-27T04:57:35.108Z,5.34
2023-05-27T04:58:06.844Z,5.16
2023-05-27T04:58:38.640Z,5.16
2023-05-27T04:59:10.973Z,5.16
2023-05-27T04:59:37.491Z,5.16
2023-05-27T04:59:59.192Z,5.21
2023-05-27T05:00:31.885Z,5.21
2023-05-27T05:01:03.593Z,5.21
2023-05-27T05:01:34.938Z,5.21
2023-05-27T05:02:06.922Z,5.21
2023-05-27T05:02:38.806Z,5.21
2023-05-27T05:03:11.103Z,5.21
2023-05-27T05:03:37.016Z,5.21
2023-05-27T05:03:59.739Z,5.21
2023-05-27T05:04:30.804Z,5.21
2023-05-27T05:05:04.388Z,5.21
2023-05-27T05:05:35.367Z,5.39
2023-05-27T05:06:06.993Z,5.21
2023-05-27T05:06:38.744Z,5.21
2023-05-27T05:07:10.948Z,5.21
2023-05-27T05:07:36.964Z,5.39
2023-05-27T05:07:59.616Z,5.21
2023-05-27T05:08:30.767Z,5.21
2023-05-27T05:09:02.867Z,5.21
2023-05-27T05:09:34.831Z,5.21
2023-05-27T05:10:07.785Z,5.21
2023-05-27T05:10:38.959Z,5.21
2023-05-27T05:11:11.032Z,5.21
2023-05-27T05:11:36.906Z,5.21
2023-05-27T05:11:59.032Z,5.21
2023-05-27T05:12:30.572Z,5.21
2023-05-27T05:13:03.328Z,5.21
2023-05-27T05:13:34.801Z,5.21
2023-05-27T05:14:07.032Z,5.21
2023-05-27T05:14:38.692Z,5.32
2023-05-27T05:15:11.923Z,5.32
2023-05-27T05:15:37.071Z,5.32
2023-05-27T05:15:59.924Z,5.32
2023-05-27T05:16:30.812Z,5.44
2023-05-27T05:17:03.254Z,5.44
2023-05-27T05:17:34.953Z,5.44
2023-05-27T05:18:07.069Z,5.54
2023-05-27T05:18:38.718Z,5.54
2023-05-27T05:19:10.986Z,5.54
2023-05-27T05:19:37.029Z,5.47
2023-05-27T05:19:59.197Z,5.65
2023-05-27T05:20:31.191Z,5.47
2023-05-27T05:21:02.708Z,5.47
2023-05-27T05:21:34.777Z,5.47
2023-05-27T05:22:07.503Z,5.47
2023-05-27T05:22:38.715Z,5.65
2023-05-27T05:23:11.230Z,5.70
2023-05-27T05:23:37.552Z,5.70
2023-05-27T05:23:59.165Z,5.52
2023-05-27T05:24:30.772Z,5.52
2023-05-27T05:25:04.033Z,5.52
2023-05-27T05:25:34.938Z,5.63
2023-05-27T05:26:08.663Z,5.63
2023-05-27T05:26:43.042Z,5.63
2023-05-27T05:27:10.964Z,5.74
2023-05-27T05:27:37.503Z,5.74
2023-05-27T05:27:59.068Z,5.85
2023-05-27T05:28:30.755Z,5.85
2023-05-27T05:29:02.944Z,5.67
2023-05-27T05:29:34.781Z,5.67
2023-05-27T05:30:08.816Z,5.78
2023-05-27T05:30:38.851Z,5.78
2023-05-27T05:31:11.449Z,5.96
2023-05-27T05:31:37.014Z,5.96
2023-05-27T05:31:59.038Z,5.78
2023-05-27T05:32:30.757Z,5.78
2023-05-27T05:33:02.853Z,5.78
2023-05-27T05:33:34.801Z,5.96
2023-05-27T05:34:06.975Z,6.01
2023-05-27T05:34:38.760Z,6.11
2023-05-27T05:35:11.725Z,5.94
2023-05-27T05:35:37.052Z,5.94
2023-05-27T05:35:59.851Z,6.05
2023-05-27T05:36:30.823Z,6.05
2023-05-27T05:37:02.697Z,6.16
2023-05-27T05:37:34.798Z,6.16
2023-05-27T05:38:06.868Z,6.27
2023-05-27T05:38:38.716Z,6.27
2023-05-27T05:39:11.042Z,6.07
2023-05-27T05:39:37.001Z,6.12
2023-05-27T05:39:59.354Z,6.07
2023-05-27T05:40:31.156Z,6.07
2023-05-27T05:41:02.752Z,6.07
2023-05-27T05:41:34.920Z,6.27
2023-05-27T05:42:06.898Z,6.07
2023-05-27T05:42:38.798Z,6.27
2023-05-27T05:43:10.851Z,6.27
2023-05-27T05:43:37.155Z,6.27
2023-05-27T05:44:00.006Z,6.07
2023-05-27T05:44:30.736Z,6.07
2023-05-27T05:45:05.152Z,6.07
2023-05-27T05:45:35.057Z,6.07
2023-05-27T05:46:06.942Z,6.12
2023-05-27T05:46:39.288Z,6.12
2023-05-27T05:47:11.299Z,6.23
2023-05-27T05:47:37.076Z,6.23
2023-05-27T05:47:59.136Z,6.05
2023-05-27T05:48:30.816Z,6.05
2023-05-27T05:49:02.741Z,6.23
2023-05-27T05:49:34.784Z,6.35
2023-05-27T05:50:07.752Z,6.35
2023-05-27T05:50:38.770Z,6.35
2023-05-27T05:51:11.050Z,6.45
2023-05-27T05:51:37.116Z,6.45
2023-05-27T05:51:59.264Z,6.45
2023-05-27T05:52:37.031Z,6.27
2023-05-27T05:53:02.775Z,6.27
2023-05-27T05:53:34.925Z,6.45
2023-05-27T05:54:06.893Z,6.45
2023-05-27T05:54:38.867Z,6.38
2023-05-27T05:55:11.243Z,6.56
2023-05-27T05:55:37.218Z,6.56
2023-05-27T05:55:59.645Z,6.61
2023-05-27T05:56:30.688Z,6.43
2023-05-27T05:57:02.690Z,6.43
2023-05-27T05:57:36.243Z,6.43
2023-05-27T05:58:07.000Z,6.43
2023-05-27T05:58:38.575Z,6.61
2023-05-27T05:59:10.870Z,6.43
2023-05-27T05:59:36.994Z,6.61
2023-05-27T05:59:59.083Z,6.43
2023-05-27T06:00:32.633Z,6.43
2023-05-27T06:01:03.735Z,6.61
2023-05-27T06:01:34.989Z,6.43
2023-05-27T06:02:06.872Z,6.43
2023-05-27T06:02:38.964Z,6.43
2023-05-27T06:03:11.333Z,6.43
2023-05-27T06:03:37.125Z,6.43
2023-05-27T06:03:59.303Z,6.43
2023-05-27T06:04:30.972Z,6.71
2023-05-27T06:05:04.331Z,6.71
2023-05-27T06:05:35.217Z,6.53
2023-05-27T06:06:06.800Z,6.65
2023-05-27T06:06:38.846Z,6.65
2023-05-27T06:07:10.952Z,6.65
2023-05-27T06:07:37.061Z,6.65
2023-05-27T06:07:59.550Z,6.65
2023-05-27T06:08:30.838Z,6.65
2023-05-27T06:09:02.818Z,6.76
2023-05-27T06:09:34.862Z,6.76
2023-05-27T06:10:07.859Z,6.86
2023-05-27T06:10:38.819Z,6.86
2023-05-27T06:11:10.844Z,6.67
2023-05-27T06:11:37.647Z,6.72
2023-05-27T06:11:59.458Z,6.91
2023-05-27T06:12:31.179Z,6.72
2023-05-27T06:13:02.796Z,6.83
2023-05-27T06:13:35.395Z,6.83
2023-05-27T06:14:07.454Z,6.83
2023-05-27T06:14:38.818Z,6.83
2023-05-27T06:15:12.118Z,6.94
2023-05-27T06:15:36.938Z,7.13
2023-05-27T06:15:59.658Z,6.63
2023-05-27T06:16:30.770Z,6.75
2023-05-27T06:17:02.722Z,6.75
2023-05-27T06:17:35.194Z,6.75
2023-05-27T06:18:06.921Z,6.75
2023-05-27T06:18:38.624Z,6.94
2023-05-27T06:19:11.016Z,7.05
2023-05-27T06:19:37.010Z,7.05
2023-05-27T06:19:59.161Z,7.05
2023-05-27T06:20:31.167Z,6.85
2023-05-27T06:21:02.844Z,7.15
2023-05-27T06:21:35.362Z,6.96
2023-05-27T06:22:06.898Z,6.85
2023-05-27T06:22:38.637Z,7.05
2023-05-27T06:23:11.167Z,6.85
2023-05-27T06:23:37.501Z,6.85
2023-05-27T06:23:59.114Z,7.15
2023-05-27T06:24:30.556Z,7.15
2023-05-27T06:25:04.315Z,6.96
2023-05-27T06:25:34.925Z,6.96
2023-05-27T06:26:07.088Z,7.20
2023-05-27T06:26:38.989Z,7.20
2023-05-27T06:27:11.175Z,7.11
2023-05-27T06:27:38.115Z,6.91
2023-05-27T06:27:59.029Z,7.02
2023-05-27T06:28:30.633Z,7.02
2023-05-27T06:29:02.693Z,7.23
2023-05-27T06:29:34.933Z,7.13
2023-05-27T06:30:08.242Z,7.34
2023-05-27T06:30:39.292Z,7.13
2023-05-27T06:31:12.451Z,7.24
2023-05-27T06:31:37.109Z,7.24
2023-05-27T06:31:59.394Z,7.24
2023-05-27T06:32:30.722Z,7.04
2023-05-27T06:33:02.797Z,6.85
2023-05-27T06:33:34.946Z,6.85
2023-05-27T06:34:06.900Z,6.85
2023-05-27T06:34:38.658Z,7.04
2023-05-27T06:35:11.472Z,7.04
2023-05-27T06:35:36.875Z,7.04
2023-05-27T06:35:59.548Z,6.85
2023-05-27T06:36:30.688Z,6.85
2023-05-27T06:37:02.905Z,6.85
2023-05-27T06:37:34.803Z,6.85
2023-05-27T06:38:07.039Z,6.85
2023-05-27T06:38:38.654Z,6.85
2023-05-27T06:39:11.308Z,6.64
2023-05-27T06:39:37.053Z,6.64